ALK881 ZGGG-VCBI
Flight info
| Callsign | ALK881 |
|---|---|
| Flight time | 4h 52m |
| Altitude | 38000 |
| Route | VIBOS1 VIBOS R473 ZUH R200 BIGRO G221 SAMAS A202 ASSAD/K0869F380 A202 VILAO/N0467F380 A202 SAV B460 KRT W1 BKK M502 LALIT P762 ESPAP DORTA1A |
| Aircraft | A333/H-SDE3GHIJ2J3J5M1RVWXY/LB2D1 |
Departure
| Time | 2026-04-26 02:01 |
|---|---|
| Airport | Guangzhou Baiyun International Airport (ZGGG) |
Arrival
| Time | 2026-04-26 06:53 |
|---|---|
| Airport | Bandaranaike International Colombo Airport (VCBI) |
| Time | Latitude | Longitude | Altitude | Speed | Heading |
|---|---|---|---|---|---|
| 2026-04-26 01:42 | 23.40227 | 113.30567 | 53 ft | 0 kts | 186° |
| 2026-04-26 01:53 | 23.40231 | 113.30568 | 58 ft | 2 kts | 184° |
| 2026-04-26 01:54 | 23.40247 | 113.30569 | 50 ft | 2 kts | 179° |
| 2026-04-26 01:54 | 23.40263 | 113.30566 | 50 ft | 2 kts | 154° |
| 2026-04-26 01:54 | 23.40277 | 113.30557 | 50 ft | 2 kts | 126° |
| 2026-04-26 01:54 | 23.40285 | 113.30541 | 50 ft | 2 kts | 107° |
| 2026-04-26 01:55 | 23.40289 | 113.30525 | 50 ft | 1 kts | 104° |
| 2026-04-26 01:55 | 23.40290 | 113.30521 | 50 ft | 0 kts | 104° |
| 2026-04-26 01:57 | 23.40290 | 113.30522 | 50 ft | 2 kts | 104° |
| 2026-04-26 01:57 | 23.40275 | 113.30588 | 50 ft | 12 kts | 104° |
| 2026-04-26 01:57 | 23.40253 | 113.30682 | 54 ft | 13 kts | 103° |
| 2026-04-26 01:57 | 23.40234 | 113.30781 | 57 ft | 14 kts | 105° |
| 2026-04-26 01:58 | 23.40208 | 113.30889 | 54 ft | 14 kts | 98° |
| 2026-04-26 01:58 | 23.40247 | 113.30954 | 51 ft | 12 kts | 27° |
| 2026-04-26 01:58 | 23.40340 | 113.30979 | 54 ft | 15 kts | 11° |
| 2026-04-26 01:58 | 23.40444 | 113.31006 | 54 ft | 17 kts | 15° |
| 2026-04-26 01:59 | 23.40564 | 113.31040 | 51 ft | 19 kts | 11° |
| 2026-04-26 01:59 | 23.40692 | 113.31080 | 51 ft | 19 kts | 20° |
| 2026-04-26 01:59 | 23.40732 | 113.31195 | 51 ft | 18 kts | 105° |
| 2026-04-26 01:59 | 23.40703 | 113.31329 | 51 ft | 18 kts | 108° |
| 2026-04-26 02:00 | 23.40604 | 113.31358 | 50 ft | 13 kts | 192° |
| 2026-04-26 02:00 | 23.40566 | 113.31349 | 51 ft | 0 kts | 192° |
| 2026-04-26 02:00 | 23.40538 | 113.31340 | 52 ft | 15 kts | 195° |
| 2026-04-26 02:00 | 23.40244 | 113.31259 | 56 ft | 76 kts | 192° |
| 2026-04-26 02:01 | 23.39537 | 113.31066 | 51 ft | 131 kts | 193° |
| 2026-04-26 02:01 | 23.38507 | 113.30793 | 89 ft | 175 kts | 194° |
| 2026-04-26 02:01 | 23.37326 | 113.30452 | 770 ft | 171 kts | 194° |
| 2026-04-26 02:01 | 23.36188 | 113.30084 | 1533 ft | 169 kts | 190° |
| 2026-04-26 02:02 | 23.35026 | 113.29708 | 2023 ft | 185 kts | 196° |
| 2026-04-26 02:02 | 23.33707 | 113.29252 | 2224 ft | 215 kts | 197° |
| 2026-04-26 02:02 | 23.32178 | 113.28732 | 2490 ft | 241 kts | 197° |
| 2026-04-26 02:02 | 23.30540 | 113.28189 | 3144 ft | 249 kts | 196° |
| 2026-04-26 02:03 | 23.28888 | 113.27637 | 3880 ft | 252 kts | 197° |
| 2026-04-26 02:03 | 23.27211 | 113.27030 | 4658 ft | 254 kts | 193° |
| 2026-04-26 02:03 | 23.25525 | 113.26430 | 5460 ft | 254 kts | 196° |
| 2026-04-26 02:03 | 23.23820 | 113.25965 | 6196 ft | 256 kts | 192° |
| 2026-04-26 02:04 | 23.22068 | 113.25525 | 6918 ft | 260 kts | 193° |
| 2026-04-26 02:04 | 23.20309 | 113.25026 | 7535 ft | 268 kts | 196° |
| 2026-04-26 02:04 | 23.18494 | 113.24474 | 8239 ft | 269 kts | 196° |
| 2026-04-26 02:04 | 23.16693 | 113.23936 | 9125 ft | 267 kts | 197° |
| 2026-04-26 02:05 | 23.14916 | 113.23369 | 9880 ft | 270 kts | 198° |
| 2026-04-26 02:05 | 23.13100 | 113.22750 | 10488 ft | 277 kts | 202° |
| 2026-04-26 02:05 | 23.11341 | 113.21759 | 10789 ft | 294 kts | 213° |
| 2026-04-26 02:05 | 23.09597 | 113.20451 | 11057 ft | 313 kts | 218° |
| 2026-04-26 02:06 | 23.07851 | 113.18956 | 11326 ft | 331 kts | 220° |
| 2026-04-26 02:06 | 23.06042 | 113.17298 | 11591 ft | 348 kts | 221° |
| 2026-04-26 02:06 | 23.04187 | 113.15553 | 11843 ft | 364 kts | 222° |
| 2026-04-26 02:06 | 23.02231 | 113.13710 | 12136 ft | 377 kts | 222° |
| 2026-04-26 02:07 | 23.00217 | 113.11827 | 12625 ft | 384 kts | 221° |
| 2026-04-26 02:07 | 22.98172 | 113.09935 | 13220 ft | 387 kts | 221° |
| 2026-04-26 02:07 | 22.96128 | 113.08057 | 13830 ft | 390 kts | 221° |
| 2026-04-26 02:07 | 22.94036 | 113.06144 | 14343 ft | 393 kts | 221° |
| 2026-04-26 02:08 | 22.91919 | 113.04212 | 14794 ft | 398 kts | 220° |
| 2026-04-26 02:08 | 22.89800 | 113.02281 | 15289 ft | 401 kts | 221° |
| 2026-04-26 02:08 | 22.87663 | 113.00335 | 15777 ft | 405 kts | 220° |
| 2026-04-26 02:08 | 22.85480 | 112.98347 | 16293 ft | 407 kts | 220° |
| 2026-04-26 02:09 | 22.83321 | 112.96380 | 16732 ft | 411 kts | 220° |
| 2026-04-26 02:09 | 22.81110 | 112.94367 | 17160 ft | 416 kts | 220° |
| 2026-04-26 02:09 | 22.78884 | 112.92340 | 17597 ft | 419 kts | 220° |
| 2026-04-26 02:09 | 22.76633 | 112.90291 | 18039 ft | 423 kts | 220° |
| 2026-04-26 02:10 | 22.74390 | 112.88251 | 18437 ft | 426 kts | 220° |
| 2026-04-26 02:10 | 22.72105 | 112.86172 | 18829 ft | 428 kts | 220° |
| 2026-04-26 02:10 | 22.69838 | 112.84111 | 19243 ft | 429 kts | 220° |
| 2026-04-26 02:10 | 22.67537 | 112.82019 | 19624 ft | 432 kts | 221° |
| 2026-04-26 02:11 | 22.65218 | 112.79913 | 19988 ft | 434 kts | 220° |
| 2026-04-26 02:11 | 22.62912 | 112.77820 | 20344 ft | 437 kts | 221° |
| 2026-04-26 02:11 | 22.60577 | 112.75703 | 20785 ft | 437 kts | 221° |
| 2026-04-26 02:11 | 22.58271 | 112.73612 | 21161 ft | 439 kts | 221° |
| 2026-04-26 02:12 | 22.55915 | 112.71475 | 21549 ft | 441 kts | 221° |
| 2026-04-26 02:12 | 22.53550 | 112.69332 | 21953 ft | 443 kts | 221° |
| 2026-04-26 02:12 | 22.51172 | 112.67177 | 22340 ft | 445 kts | 221° |
| 2026-04-26 02:12 | 22.48815 | 112.65043 | 22732 ft | 447 kts | 221° |
| 2026-04-26 02:13 | 22.46405 | 112.62862 | 23129 ft | 450 kts | 222° |
| 2026-04-26 02:13 | 22.44025 | 112.60708 | 23526 ft | 452 kts | 222° |
| 2026-04-26 02:13 | 22.41599 | 112.58515 | 23862 ft | 454 kts | 222° |
| 2026-04-26 02:13 | 22.39177 | 112.56327 | 24175 ft | 456 kts | 222° |
| 2026-04-26 02:14 | 22.36715 | 112.54104 | 24509 ft | 459 kts | 222° |
| 2026-04-26 02:14 | 22.34286 | 112.51911 | 24817 ft | 461 kts | 222° |
| 2026-04-26 02:14 | 22.31822 | 112.49688 | 25135 ft | 463 kts | 222° |
| 2026-04-26 02:14 | 22.29325 | 112.47436 | 25449 ft | 465 kts | 222° |
| 2026-04-26 02:15 | 22.26856 | 112.45210 | 25769 ft | 467 kts | 222° |
| 2026-04-26 02:15 | 22.24352 | 112.42954 | 26106 ft | 469 kts | 222° |
| 2026-04-26 02:15 | 22.21834 | 112.40687 | 26427 ft | 471 kts | 222° |
| 2026-04-26 02:15 | 22.19305 | 112.38410 | 26731 ft | 473 kts | 222° |
| 2026-04-26 02:16 | 22.16767 | 112.36128 | 27042 ft | 476 kts | 222° |
| 2026-04-26 02:16 | 22.14244 | 112.33859 | 27342 ft | 478 kts | 222° |
| 2026-04-26 02:16 | 22.11682 | 112.31556 | 27701 ft | 479 kts | 222° |
| 2026-04-26 02:16 | 22.09128 | 112.29262 | 27996 ft | 481 kts | 222° |
| 2026-04-26 02:17 | 22.06542 | 112.26939 | 28290 ft | 483 kts | 222° |
| 2026-04-26 02:17 | 22.03970 | 112.24631 | 28560 ft | 485 kts | 223° |
| 2026-04-26 02:17 | 22.01358 | 112.22288 | 28850 ft | 487 kts | 223° |
| 2026-04-26 02:17 | 21.98736 | 112.19936 | 29121 ft | 489 kts | 223° |
| 2026-04-26 02:18 | 21.96138 | 112.17607 | 29391 ft | 491 kts | 223° |
| 2026-04-26 02:18 | 21.93493 | 112.15239 | 29649 ft | 493 kts | 223° |
| 2026-04-26 02:18 | 21.90852 | 112.12875 | 30010 ft | 493 kts | 223° |
| 2026-04-26 02:18 | 21.88248 | 112.10547 | 30422 ft | 490 kts | 223° |
| 2026-04-26 02:19 | 21.85628 | 112.08206 | 30832 ft | 487 kts | 223° |
| 2026-04-26 02:19 | 21.83027 | 112.05882 | 31231 ft | 485 kts | 224° |
| 2026-04-26 02:19 | 21.80426 | 112.03558 | 31583 ft | 483 kts | 224° |
| 2026-04-26 02:19 | 21.77834 | 112.01243 | 31929 ft | 482 kts | 224° |
| 2026-04-26 02:20 | 21.75275 | 111.98959 | 32289 ft | 481 kts | 224° |
| 2026-04-26 02:20 | 21.72694 | 111.96656 | 32658 ft | 479 kts | 224° |
| 2026-04-26 02:20 | 21.70159 | 111.94395 | 33016 ft | 478 kts | 225° |
| 2026-04-26 02:20 | 21.67600 | 111.92114 | 33370 ft | 476 kts | 225° |
| 2026-04-26 02:21 | 21.65037 | 111.89831 | 33732 ft | 475 kts | 225° |
| 2026-04-26 02:21 | 21.62519 | 111.87589 | 34079 ft | 473 kts | 225° |
| 2026-04-26 02:21 | 21.59986 | 111.85334 | 34334 ft | 472 kts | 225° |
| 2026-04-26 02:21 | 21.57517 | 111.83007 | 34627 ft | 467 kts | 230° |
| 2026-04-26 02:22 | 21.55299 | 111.80468 | 34897 ft | 464 kts | 233° |
| 2026-04-26 02:22 | 21.53177 | 111.77899 | 35196 ft | 461 kts | 234° |
| 2026-04-26 02:22 | 21.51079 | 111.75290 | 35489 ft | 459 kts | 235° |
| 2026-04-26 02:22 | 21.49010 | 111.72680 | 35769 ft | 458 kts | 235° |
| 2026-04-26 02:23 | 21.46977 | 111.70102 | 36033 ft | 457 kts | 235° |
| 2026-04-26 02:23 | 21.42870 | 111.64904 | 36136 ft | 452 kts | 235° |
| 2026-04-26 02:24 | 21.38794 | 111.59771 | 36131 ft | 450 kts | 235° |
| 2026-04-26 02:24 | 21.34741 | 111.54680 | 36132 ft | 450 kts | 235° |
| 2026-04-26 02:25 | 21.30689 | 111.49599 | 36131 ft | 449 kts | 234° |
| 2026-04-26 02:25 | 21.26632 | 111.44518 | 36129 ft | 449 kts | 234° |
| 2026-04-26 02:26 | 21.22557 | 111.39417 | 36128 ft | 449 kts | 234° |
| 2026-04-26 02:26 | 21.18506 | 111.34352 | 36129 ft | 449 kts | 234° |
| 2026-04-26 02:27 | 21.14422 | 111.29251 | 36128 ft | 449 kts | 234° |
| 2026-04-26 02:27 | 21.10374 | 111.24198 | 36129 ft | 449 kts | 234° |
| 2026-04-26 02:28 | 21.06297 | 111.19115 | 36119 ft | 449 kts | 234° |
| 2026-04-26 02:28 | 21.02241 | 111.14063 | 36140 ft | 448 kts | 234° |
| 2026-04-26 02:29 | 20.98165 | 111.08989 | 36130 ft | 449 kts | 234° |
| 2026-04-26 02:29 | 20.94114 | 111.03943 | 36115 ft | 449 kts | 234° |
| 2026-04-26 02:30 | 20.90044 | 110.98845 | 36116 ft | 449 kts | 235° |
| 2026-04-26 02:30 | 20.86009 | 110.93786 | 36128 ft | 449 kts | 234° |
| 2026-04-26 02:31 | 20.81954 | 110.88708 | 36113 ft | 449 kts | 234° |
| 2026-04-26 02:31 | 20.77917 | 110.83661 | 36114 ft | 449 kts | 234° |
| 2026-04-26 02:32 | 20.73845 | 110.78576 | 36125 ft | 449 kts | 234° |
| 2026-04-26 02:32 | 20.69789 | 110.73515 | 36125 ft | 449 kts | 234° |
| 2026-04-26 02:33 | 20.65708 | 110.68428 | 36116 ft | 450 kts | 234° |
| 2026-04-26 02:33 | 20.61650 | 110.63373 | 36112 ft | 450 kts | 234° |
| 2026-04-26 02:34 | 20.57570 | 110.58296 | 36124 ft | 450 kts | 234° |
| 2026-04-26 02:34 | 20.53498 | 110.53233 | 36107 ft | 450 kts | 234° |
| 2026-04-26 02:35 | 20.49451 | 110.48168 | 36120 ft | 448 kts | 235° |
| 2026-04-26 02:35 | 20.45496 | 110.43011 | 36118 ft | 448 kts | 236° |
| 2026-04-26 02:36 | 20.41595 | 110.37867 | 36121 ft | 448 kts | 236° |
| 2026-04-26 02:36 | 20.37678 | 110.32718 | 36117 ft | 448 kts | 236° |
| 2026-04-26 02:37 | 20.33731 | 110.27553 | 36119 ft | 448 kts | 236° |
| 2026-04-26 02:37 | 20.29807 | 110.22421 | 36121 ft | 448 kts | 236° |
| 2026-04-26 02:38 | 20.25926 | 110.17262 | 36096 ft | 448 kts | 236° |
| 2026-04-26 02:38 | 20.22042 | 110.12067 | 36117 ft | 448 kts | 236° |
| 2026-04-26 02:39 | 20.18162 | 110.06885 | 36115 ft | 448 kts | 236° |
| 2026-04-26 02:39 | 20.14272 | 110.01700 | 36117 ft | 448 kts | 236° |
| 2026-04-26 02:40 | 20.10395 | 109.96539 | 36118 ft | 448 kts | 235° |
| 2026-04-26 02:40 | 20.06491 | 109.91350 | 36117 ft | 448 kts | 235° |
| 2026-04-26 02:41 | 20.02615 | 109.86202 | 36116 ft | 448 kts | 235° |
| 2026-04-26 02:41 | 19.99367 | 109.81891 | 36118 ft | 448 kts | 235° |
| 2026-04-26 02:42 | 19.95481 | 109.76736 | 36114 ft | 449 kts | 235° |
| 2026-04-26 02:42 | 19.90921 | 109.70694 | 36114 ft | 450 kts | 235° |
| 2026-04-26 02:43 | 19.85042 | 109.62916 | 36108 ft | 449 kts | 235° |
| 2026-04-26 02:43 | 19.81768 | 109.58588 | 36110 ft | 449 kts | 235° |
| 2026-04-26 02:44 | 19.77824 | 109.53373 | 36111 ft | 458 kts | 235° |
| 2026-04-26 02:44 | 19.73805 | 109.48065 | 36106 ft | 466 kts | 234° |
| 2026-04-26 02:45 | 19.69730 | 109.42695 | 36102 ft | 465 kts | 235° |
| 2026-04-26 02:45 | 19.65682 | 109.37367 | 36106 ft | 466 kts | 235° |
| 2026-04-26 02:46 | 19.61605 | 109.32002 | 36101 ft | 466 kts | 235° |
| 2026-04-26 02:46 | 19.57554 | 109.26674 | 36102 ft | 466 kts | 235° |
| 2026-04-26 02:47 | 19.53470 | 109.21309 | 36099 ft | 466 kts | 234° |
| 2026-04-26 02:47 | 19.49392 | 109.15979 | 36096 ft | 466 kts | 234° |
| 2026-04-26 02:48 | 19.45301 | 109.10673 | 36096 ft | 466 kts | 234° |
| 2026-04-26 02:48 | 19.41188 | 109.05347 | 36102 ft | 466 kts | 234° |
| 2026-04-26 02:49 | 19.37104 | 109.00062 | 36100 ft | 464 kts | 234° |
| 2026-04-26 02:49 | 19.33002 | 108.94753 | 36099 ft | 464 kts | 234° |
| 2026-04-26 02:50 | 19.28916 | 108.89470 | 36099 ft | 464 kts | 234° |
| 2026-04-26 02:50 | 19.24838 | 108.84201 | 36102 ft | 465 kts | 234° |
| 2026-04-26 02:51 | 19.20749 | 108.78921 | 36100 ft | 465 kts | 234° |
| 2026-04-26 02:51 | 19.16639 | 108.73618 | 36099 ft | 465 kts | 234° |
| 2026-04-26 02:52 | 19.12549 | 108.68345 | 36100 ft | 466 kts | 234° |
| 2026-04-26 02:52 | 19.08434 | 108.63046 | 36096 ft | 466 kts | 234° |
| 2026-04-26 02:53 | 19.04308 | 108.57737 | 36098 ft | 466 kts | 234° |
| 2026-04-26 02:53 | 19.00219 | 108.52481 | 36102 ft | 466 kts | 234° |
| 2026-04-26 02:54 | 18.96084 | 108.47170 | 36099 ft | 466 kts | 234° |
| 2026-04-26 02:54 | 18.91967 | 108.41886 | 36101 ft | 466 kts | 234° |
| 2026-04-26 02:55 | 18.87860 | 108.36620 | 36102 ft | 466 kts | 234° |
| 2026-04-26 02:55 | 18.83749 | 108.31354 | 36100 ft | 466 kts | 234° |
| 2026-04-26 02:56 | 18.79634 | 108.26086 | 36102 ft | 466 kts | 234° |
| 2026-04-26 02:56 | 18.75503 | 108.20801 | 36101 ft | 466 kts | 234° |
| 2026-04-26 02:57 | 18.71377 | 108.15529 | 36104 ft | 466 kts | 234° |
| 2026-04-26 02:57 | 18.67268 | 108.10282 | 36104 ft | 466 kts | 234° |
| 2026-04-26 02:58 | 18.63130 | 108.05003 | 36104 ft | 466 kts | 234° |
| 2026-04-26 02:58 | 18.59019 | 107.99763 | 36104 ft | 466 kts | 234° |
| 2026-04-26 02:59 | 18.54876 | 107.94486 | 36104 ft | 465 kts | 234° |
| 2026-04-26 02:59 | 18.50772 | 107.89265 | 36104 ft | 464 kts | 234° |
| 2026-04-26 03:00 | 18.46655 | 107.84030 | 36107 ft | 463 kts | 234° |
| 2026-04-26 03:00 | 18.42545 | 107.78808 | 36107 ft | 464 kts | 234° |
| 2026-04-26 03:01 | 18.38438 | 107.73593 | 36107 ft | 464 kts | 234° |
| 2026-04-26 03:01 | 18.34380 | 107.68306 | 36104 ft | 460 kts | 239° |
| 2026-04-26 03:02 | 18.30844 | 107.62713 | 36104 ft | 459 kts | 240° |
| 2026-04-26 03:02 | 18.27417 | 107.57055 | 36098 ft | 460 kts | 241° |
| 2026-04-26 03:03 | 18.23997 | 107.51365 | 36105 ft | 462 kts | 241° |
| 2026-04-26 03:03 | 18.20545 | 107.45643 | 36104 ft | 462 kts | 240° |
| 2026-04-26 03:04 | 18.17106 | 107.39965 | 36104 ft | 462 kts | 240° |
| 2026-04-26 03:04 | 18.13644 | 107.34256 | 36104 ft | 461 kts | 241° |
| 2026-04-26 03:05 | 18.10185 | 107.28560 | 36105 ft | 461 kts | 241° |
| 2026-04-26 03:05 | 18.06748 | 107.22902 | 36104 ft | 461 kts | 241° |
| 2026-04-26 03:06 | 18.03281 | 107.17205 | 36099 ft | 461 kts | 241° |
| 2026-04-26 03:06 | 17.99832 | 107.11548 | 36098 ft | 461 kts | 241° |
| 2026-04-26 03:07 | 17.96380 | 107.05889 | 36099 ft | 461 kts | 241° |
| 2026-04-26 03:07 | 17.92909 | 107.00204 | 36096 ft | 461 kts | 241° |
| 2026-04-26 03:08 | 17.89436 | 106.94520 | 36096 ft | 461 kts | 241° |
| 2026-04-26 03:08 | 17.85990 | 106.88866 | 36096 ft | 461 kts | 241° |
| 2026-04-26 03:09 | 17.82535 | 106.83179 | 36099 ft | 461 kts | 241° |
| 2026-04-26 03:09 | 17.79082 | 106.77496 | 36098 ft | 461 kts | 241° |
| 2026-04-26 03:10 | 17.75634 | 106.71831 | 36236 ft | 462 kts | 241° |
| 2026-04-26 03:10 | 17.73901 | 106.68987 | 36486 ft | 461 kts | 241° |
| 2026-04-26 03:10 | 17.72186 | 106.66172 | 36729 ft | 461 kts | 241° |
| 2026-04-26 03:11 | 17.70463 | 106.63347 | 36861 ft | 462 kts | 240° |
| 2026-04-26 03:11 | 17.68735 | 106.60512 | 37015 ft | 463 kts | 240° |
| 2026-04-26 03:11 | 17.66993 | 106.57662 | 37276 ft | 462 kts | 240° |
| 2026-04-26 03:11 | 17.65263 | 106.54838 | 37528 ft | 460 kts | 240° |
| 2026-04-26 03:12 | 17.63544 | 106.52034 | 37778 ft | 459 kts | 240° |
| 2026-04-26 03:12 | 17.61814 | 106.49215 | 37998 ft | 458 kts | 240° |
| 2026-04-26 03:12 | 17.58368 | 106.43602 | 38003 ft | 457 kts | 240° |
| 2026-04-26 03:13 | 17.54932 | 106.38007 | 38005 ft | 458 kts | 240° |
| 2026-04-26 03:13 | 17.51492 | 106.32407 | 38011 ft | 457 kts | 240° |
| 2026-04-26 03:14 | 17.48044 | 106.26801 | 38006 ft | 457 kts | 240° |
| 2026-04-26 03:14 | 17.44604 | 106.21217 | 38013 ft | 457 kts | 240° |
| 2026-04-26 03:15 | 17.41162 | 106.15631 | 37997 ft | 457 kts | 240° |
| 2026-04-26 03:15 | 17.37706 | 106.10026 | 38010 ft | 460 kts | 240° |
| 2026-04-26 03:16 | 17.34267 | 106.04402 | 38004 ft | 460 kts | 240° |
| 2026-04-26 03:16 | 17.30832 | 105.98721 | 38002 ft | 460 kts | 241° |
| 2026-04-26 03:17 | 17.27411 | 105.93060 | 38002 ft | 461 kts | 241° |
| 2026-04-26 03:17 | 17.23988 | 105.87410 | 37990 ft | 461 kts | 241° |
| 2026-04-26 03:18 | 17.20542 | 105.81733 | 37992 ft | 461 kts | 241° |
| 2026-04-26 03:18 | 17.17114 | 105.76091 | 37986 ft | 461 kts | 241° |
| 2026-04-26 03:19 | 17.13665 | 105.70417 | 37985 ft | 461 kts | 241° |
| 2026-04-26 03:19 | 17.10232 | 105.64774 | 37987 ft | 462 kts | 240° |
| 2026-04-26 03:20 | 17.06786 | 105.59115 | 37986 ft | 463 kts | 241° |
| 2026-04-26 03:20 | 17.03328 | 105.53441 | 37980 ft | 464 kts | 241° |
| 2026-04-26 03:21 | 16.99857 | 105.47750 | 37975 ft | 464 kts | 240° |
| 2026-04-26 03:21 | 16.96377 | 105.42050 | 37982 ft | 464 kts | 240° |
| 2026-04-26 03:22 | 16.92919 | 105.36390 | 37987 ft | 464 kts | 240° |
| 2026-04-26 03:22 | 16.89435 | 105.30691 | 37983 ft | 464 kts | 240° |
| 2026-04-26 03:23 | 16.85972 | 105.25034 | 37989 ft | 464 kts | 241° |
| 2026-04-26 03:23 | 16.82508 | 105.19384 | 37981 ft | 464 kts | 241° |
| 2026-04-26 03:24 | 16.79004 | 105.13677 | 37975 ft | 466 kts | 240° |
| 2026-04-26 03:24 | 16.75523 | 105.08012 | 37977 ft | 466 kts | 240° |
| 2026-04-26 03:25 | 16.72007 | 105.02298 | 37979 ft | 466 kts | 240° |
| 2026-04-26 03:25 | 16.68521 | 104.96634 | 37983 ft | 466 kts | 240° |
| 2026-04-26 03:26 | 16.65007 | 104.90931 | 37986 ft | 466 kts | 240° |
| 2026-04-26 03:26 | 16.61520 | 104.85277 | 37992 ft | 465 kts | 240° |
| 2026-04-26 03:27 | 16.58014 | 104.79593 | 37991 ft | 464 kts | 240° |
| 2026-04-26 03:27 | 16.54935 | 104.73748 | 37997 ft | 461 kts | 247° |
| 2026-04-26 03:28 | 16.52179 | 104.67688 | 37977 ft | 461 kts | 248° |
| 2026-04-26 03:28 | 16.49495 | 104.61622 | 37989 ft | 464 kts | 248° |
| 2026-04-26 03:29 | 16.46780 | 104.55490 | 37988 ft | 465 kts | 248° |
| 2026-04-26 03:29 | 16.44072 | 104.49405 | 37983 ft | 465 kts | 248° |
| 2026-04-26 03:30 | 16.41341 | 104.43287 | 37981 ft | 465 kts | 248° |
| 2026-04-26 03:30 | 16.38627 | 104.37216 | 37979 ft | 465 kts | 248° |
| 2026-04-26 03:31 | 16.35905 | 104.31131 | 37979 ft | 465 kts | 248° |
| 2026-04-26 03:31 | 16.33161 | 104.25002 | 37970 ft | 464 kts | 248° |
| 2026-04-26 03:32 | 16.30442 | 104.18935 | 37971 ft | 464 kts | 248° |
| 2026-04-26 03:32 | 16.27704 | 104.12829 | 37961 ft | 464 kts | 248° |
| 2026-04-26 03:33 | 16.24985 | 104.06771 | 37972 ft | 464 kts | 248° |
| 2026-04-26 03:33 | 16.22259 | 104.00702 | 37963 ft | 464 kts | 247° |
| 2026-04-26 03:34 | 16.19513 | 103.94597 | 37970 ft | 466 kts | 247° |
| 2026-04-26 03:34 | 16.16756 | 103.88472 | 37968 ft | 466 kts | 247° |
| 2026-04-26 03:35 | 16.14019 | 103.82398 | 37967 ft | 466 kts | 247° |
| 2026-04-26 03:35 | 16.10961 | 103.76427 | 37965 ft | 469 kts | 238° |
| 2026-04-26 03:36 | 16.07169 | 103.70927 | 37968 ft | 470 kts | 236° |
| 2026-04-26 03:36 | 16.03879 | 103.66406 | 37964 ft | 471 kts | 236° |
| 2026-04-26 03:37 | 15.99254 | 103.60112 | 37963 ft | 471 kts | 236° |
| 2026-04-26 03:37 | 15.95948 | 103.55598 | 37968 ft | 471 kts | 236° |
| 2026-04-26 03:38 | 15.92003 | 103.50194 | 37967 ft | 471 kts | 236° |
| 2026-04-26 03:38 | 15.88028 | 103.44745 | 37969 ft | 473 kts | 236° |
| 2026-04-26 03:39 | 15.84036 | 103.39277 | 37968 ft | 474 kts | 236° |
| 2026-04-26 03:39 | 15.80058 | 103.33834 | 37974 ft | 474 kts | 236° |
| 2026-04-26 03:40 | 15.76063 | 103.28370 | 37971 ft | 474 kts | 236° |
| 2026-04-26 03:40 | 15.72081 | 103.22928 | 37971 ft | 474 kts | 236° |
| 2026-04-26 03:41 | 15.68087 | 103.17473 | 37974 ft | 474 kts | 236° |
| 2026-04-26 03:41 | 15.64092 | 103.12022 | 37971 ft | 474 kts | 236° |
| 2026-04-26 03:42 | 15.60111 | 103.06592 | 37966 ft | 475 kts | 235° |
| 2026-04-26 03:42 | 15.56107 | 103.01134 | 37976 ft | 478 kts | 235° |
| 2026-04-26 03:43 | 15.52062 | 102.95626 | 37973 ft | 479 kts | 235° |
| 2026-04-26 03:43 | 15.48037 | 102.90150 | 37973 ft | 479 kts | 235° |
| 2026-04-26 03:44 | 15.43986 | 102.84642 | 37977 ft | 479 kts | 235° |
| 2026-04-26 03:44 | 15.39958 | 102.79169 | 37976 ft | 479 kts | 235° |
| 2026-04-26 03:45 | 15.35903 | 102.73662 | 37976 ft | 479 kts | 235° |
| 2026-04-26 03:45 | 15.31873 | 102.68194 | 37976 ft | 480 kts | 235° |
| 2026-04-26 03:46 | 15.27809 | 102.62684 | 37965 ft | 480 kts | 234° |
| 2026-04-26 03:47 | 15.21691 | 102.54395 | 37975 ft | 484 kts | 234° |
| 2026-04-26 03:47 | 15.17611 | 102.48874 | 37976 ft | 485 kts | 234° |
| 2026-04-26 03:48 | 15.13497 | 102.43313 | 37969 ft | 485 kts | 234° |
| 2026-04-26 03:48 | 15.09423 | 102.37816 | 37982 ft | 483 kts | 235° |
| 2026-04-26 03:49 | 15.05324 | 102.32291 | 37961 ft | 481 kts | 235° |
| 2026-04-26 03:49 | 15.01262 | 102.26818 | 37963 ft | 481 kts | 235° |
| 2026-04-26 03:50 | 14.97174 | 102.21314 | 37963 ft | 481 kts | 235° |
| 2026-04-26 03:50 | 14.93130 | 102.15815 | 37963 ft | 480 kts | 238° |
| 2026-04-26 03:51 | 14.89980 | 102.09800 | 37967 ft | 476 kts | 247° |
| 2026-04-26 03:51 | 14.87273 | 102.03526 | 37976 ft | 476 kts | 249° |
| 2026-04-26 03:52 | 14.84675 | 101.97265 | 37969 ft | 475 kts | 249° |
| 2026-04-26 03:52 | 14.82076 | 101.91020 | 37979 ft | 474 kts | 249° |
| 2026-04-26 03:53 | 14.79460 | 101.84782 | 37982 ft | 474 kts | 249° |
| 2026-04-26 03:53 | 14.76816 | 101.78507 | 37967 ft | 474 kts | 249° |
| 2026-04-26 03:54 | 14.74186 | 101.72271 | 37970 ft | 474 kts | 249° |
| 2026-04-26 03:54 | 14.71557 | 101.66042 | 37984 ft | 474 kts | 248° |
| 2026-04-26 03:55 | 14.68915 | 101.59788 | 37977 ft | 472 kts | 248° |
| 2026-04-26 03:55 | 14.66301 | 101.53606 | 37981 ft | 472 kts | 248° |
| 2026-04-26 03:56 | 14.63659 | 101.47359 | 37968 ft | 473 kts | 248° |
| 2026-04-26 03:56 | 14.61018 | 101.41123 | 37963 ft | 475 kts | 248° |
| 2026-04-26 03:57 | 14.58376 | 101.34894 | 37977 ft | 475 kts | 248° |
| 2026-04-26 03:57 | 14.55727 | 101.28654 | 37966 ft | 475 kts | 248° |
| 2026-04-26 03:58 | 14.52972 | 101.22450 | 37969 ft | 476 kts | 242° |
| 2026-04-26 03:58 | 14.49002 | 101.17014 | 37953 ft | 479 kts | 228° |
| 2026-04-26 03:59 | 14.44218 | 101.12190 | 37967 ft | 481 kts | 225° |
| 2026-04-26 03:59 | 14.39322 | 101.07530 | 37966 ft | 481 kts | 225° |
| 2026-04-26 04:00 | 14.34395 | 101.02849 | 37969 ft | 481 kts | 225° |
| 2026-04-26 04:00 | 14.29503 | 100.98162 | 37962 ft | 481 kts | 225° |
| 2026-04-26 04:01 | 14.24608 | 100.93455 | 37961 ft | 481 kts | 225° |
| 2026-04-26 04:01 | 14.19710 | 100.88744 | 37942 ft | 481 kts | 225° |
| 2026-04-26 04:02 | 14.14829 | 100.84054 | 37957 ft | 481 kts | 225° |
| 2026-04-26 04:02 | 14.09914 | 100.79335 | 37954 ft | 481 kts | 225° |
| 2026-04-26 04:03 | 14.05036 | 100.74655 | 37963 ft | 481 kts | 225° |
| 2026-04-26 04:03 | 14.00122 | 100.69943 | 37948 ft | 481 kts | 225° |
| 2026-04-26 04:04 | 13.95232 | 100.65256 | 37966 ft | 483 kts | 224° |
| 2026-04-26 04:04 | 13.90858 | 100.59994 | 37965 ft | 483 kts | 239° |
| 2026-04-26 04:05 | 13.88273 | 100.53701 | 37964 ft | 480 kts | 256° |
| 2026-04-26 04:05 | 13.86841 | 100.46965 | 37967 ft | 481 kts | 259° |
| 2026-04-26 04:06 | 13.85619 | 100.40192 | 37957 ft | 481 kts | 260° |
| 2026-04-26 04:06 | 13.84396 | 100.33438 | 37954 ft | 481 kts | 259° |
| 2026-04-26 04:07 | 13.83137 | 100.26703 | 37942 ft | 481 kts | 259° |
| 2026-04-26 04:07 | 13.81852 | 100.19934 | 37938 ft | 481 kts | 259° |
| 2026-04-26 04:08 | 13.80568 | 100.13194 | 37933 ft | 481 kts | 259° |
| 2026-04-26 04:08 | 13.79277 | 100.06425 | 37931 ft | 481 kts | 259° |
| 2026-04-26 04:09 | 13.77994 | 99.99699 | 37939 ft | 481 kts | 259° |
| 2026-04-26 04:09 | 13.76699 | 99.92919 | 37929 ft | 481 kts | 259° |
| 2026-04-26 04:10 | 13.75411 | 99.86186 | 37939 ft | 481 kts | 259° |
| 2026-04-26 04:10 | 13.74116 | 99.79428 | 37934 ft | 481 kts | 259° |
| 2026-04-26 04:11 | 13.72822 | 99.72684 | 37932 ft | 481 kts | 259° |
| 2026-04-26 04:11 | 13.71527 | 99.65951 | 37927 ft | 481 kts | 259° |
| 2026-04-26 04:12 | 13.70224 | 99.59182 | 37926 ft | 481 kts | 259° |
| 2026-04-26 04:12 | 13.68922 | 99.52430 | 37930 ft | 481 kts | 259° |
| 2026-04-26 04:13 | 13.67622 | 99.45697 | 37930 ft | 481 kts | 259° |
| 2026-04-26 04:13 | 13.66314 | 99.38936 | 37927 ft | 481 kts | 259° |
| 2026-04-26 04:14 | 13.65016 | 99.32239 | 37935 ft | 480 kts | 259° |
| 2026-04-26 04:14 | 13.63707 | 99.25491 | 37936 ft | 480 kts | 259° |
| 2026-04-26 04:15 | 13.62397 | 99.18745 | 37939 ft | 480 kts | 259° |
| 2026-04-26 04:15 | 13.61096 | 99.12059 | 37941 ft | 480 kts | 259° |
| 2026-04-26 04:16 | 13.59781 | 99.05299 | 37939 ft | 480 kts | 258° |
| 2026-04-26 04:16 | 13.58473 | 98.98593 | 37940 ft | 480 kts | 258° |
| 2026-04-26 04:17 | 13.57154 | 98.91837 | 37943 ft | 480 kts | 258° |
| 2026-04-26 04:17 | 13.55843 | 98.85137 | 37941 ft | 480 kts | 258° |
| 2026-04-26 04:18 | 13.54528 | 98.78418 | 37936 ft | 480 kts | 258° |
| 2026-04-26 04:18 | 13.53203 | 98.71661 | 37936 ft | 480 kts | 258° |
| 2026-04-26 04:19 | 13.51883 | 98.64939 | 37936 ft | 481 kts | 258° |
| 2026-04-26 04:19 | 13.50562 | 98.58228 | 37924 ft | 482 kts | 258° |
| 2026-04-26 04:20 | 13.49230 | 98.51466 | 37920 ft | 482 kts | 258° |
| 2026-04-26 04:20 | 13.47899 | 98.44723 | 37918 ft | 482 kts | 258° |
| 2026-04-26 04:21 | 13.46561 | 98.37963 | 37917 ft | 482 kts | 258° |
| 2026-04-26 04:21 | 13.45229 | 98.31244 | 37916 ft | 482 kts | 258° |
| 2026-04-26 04:22 | 13.43889 | 98.24492 | 37915 ft | 483 kts | 258° |
| 2026-04-26 04:22 | 13.42543 | 98.17717 | 37915 ft | 483 kts | 258° |
| 2026-04-26 04:23 | 13.41204 | 98.10983 | 37911 ft | 483 kts | 258° |
| 2026-04-26 04:23 | 13.39854 | 98.04203 | 37910 ft | 483 kts | 258° |
| 2026-04-26 04:24 | 13.38512 | 97.97475 | 37915 ft | 483 kts | 258° |
| 2026-04-26 04:24 | 13.37156 | 97.90689 | 37917 ft | 484 kts | 258° |
| 2026-04-26 04:25 | 13.35807 | 97.83941 | 37913 ft | 485 kts | 258° |
| 2026-04-26 04:25 | 13.34450 | 97.77171 | 37916 ft | 486 kts | 258° |
| 2026-04-26 04:26 | 13.33087 | 97.70372 | 37913 ft | 486 kts | 258° |
| 2026-04-26 04:26 | 13.31948 | 97.64704 | 37915 ft | 486 kts | 258° |
| 2026-04-26 04:27 | 13.30579 | 97.57900 | 37914 ft | 486 kts | 258° |
| 2026-04-26 04:27 | 13.28983 | 97.49976 | 37915 ft | 487 kts | 258° |
| 2026-04-26 04:28 | 13.27845 | 97.44336 | 37914 ft | 487 kts | 258° |
| 2026-04-26 04:28 | 13.26463 | 97.37496 | 37911 ft | 487 kts | 258° |
| 2026-04-26 04:29 | 13.24866 | 97.29598 | 37913 ft | 487 kts | 258° |
| 2026-04-26 04:29 | 13.23717 | 97.23927 | 37913 ft | 487 kts | 258° |
| 2026-04-26 04:30 | 13.22335 | 97.17119 | 37913 ft | 487 kts | 258° |
| 2026-04-26 04:30 | 13.20948 | 97.10292 | 37913 ft | 487 kts | 258° |
| 2026-04-26 04:31 | 13.19567 | 97.03503 | 37911 ft | 487 kts | 258° |
| 2026-04-26 04:31 | 13.18177 | 96.96681 | 37912 ft | 487 kts | 258° |
| 2026-04-26 04:32 | 13.16794 | 96.89900 | 37913 ft | 487 kts | 258° |
| 2026-04-26 04:32 | 13.15406 | 96.83106 | 37916 ft | 487 kts | 258° |
| 2026-04-26 04:33 | 13.14012 | 96.76293 | 37913 ft | 487 kts | 258° |
| 2026-04-26 04:33 | 13.12625 | 96.69522 | 37913 ft | 487 kts | 258° |
| 2026-04-26 04:34 | 13.11226 | 96.62707 | 37914 ft | 487 kts | 258° |
| 2026-04-26 04:34 | 13.09833 | 96.55924 | 37912 ft | 487 kts | 258° |
| 2026-04-26 04:35 | 13.08430 | 96.49103 | 37912 ft | 487 kts | 258° |
| 2026-04-26 04:35 | 13.07027 | 96.42292 | 37911 ft | 487 kts | 258° |
| 2026-04-26 04:36 | 13.05629 | 96.35517 | 37908 ft | 487 kts | 258° |
| 2026-04-26 04:36 | 13.04219 | 96.28692 | 37913 ft | 488 kts | 258° |
| 2026-04-26 04:37 | 13.02812 | 96.21892 | 37906 ft | 488 kts | 257° |
| 2026-04-26 04:37 | 13.01408 | 96.15114 | 37912 ft | 488 kts | 257° |
| 2026-04-26 04:38 | 12.99989 | 96.08272 | 37908 ft | 488 kts | 258° |
| 2026-04-26 04:38 | 12.98574 | 96.01460 | 37908 ft | 489 kts | 257° |
| 2026-04-26 04:39 | 12.97159 | 95.94661 | 37915 ft | 489 kts | 257° |
| 2026-04-26 04:39 | 12.95744 | 95.87864 | 37907 ft | 489 kts | 257° |
| 2026-04-26 04:40 | 12.94325 | 95.81062 | 37910 ft | 489 kts | 257° |
| 2026-04-26 04:40 | 12.92900 | 95.74240 | 37910 ft | 489 kts | 257° |
| 2026-04-26 04:41 | 12.91477 | 95.67434 | 37909 ft | 489 kts | 257° |
| 2026-04-26 04:41 | 12.90047 | 95.60608 | 37912 ft | 489 kts | 257° |
| 2026-04-26 04:42 | 12.88623 | 95.53820 | 37913 ft | 488 kts | 257° |
| 2026-04-26 04:42 | 12.86898 | 95.47073 | 37912 ft | 488 kts | 248° |
| 2026-04-26 04:43 | 12.84243 | 95.40660 | 37910 ft | 488 kts | 245° |
| 2026-04-26 04:43 | 12.81416 | 95.34352 | 37910 ft | 488 kts | 245° |
| 2026-04-26 04:44 | 12.78549 | 95.28038 | 37911 ft | 488 kts | 245° |
| 2026-04-26 04:44 | 12.75708 | 95.21747 | 37910 ft | 488 kts | 245° |
| 2026-04-26 04:45 | 12.72874 | 95.15445 | 37910 ft | 488 kts | 245° |
| 2026-04-26 04:45 | 12.70025 | 95.09105 | 37906 ft | 489 kts | 245° |
| 2026-04-26 04:46 | 12.67181 | 95.02779 | 37910 ft | 490 kts | 245° |
| 2026-04-26 04:46 | 12.64335 | 94.96457 | 37910 ft | 490 kts | 245° |
| 2026-04-26 04:47 | 12.61479 | 94.90118 | 37906 ft | 490 kts | 244° |
| 2026-04-26 04:47 | 12.58617 | 94.83771 | 37910 ft | 490 kts | 244° |
| 2026-04-26 04:48 | 12.54352 | 94.74320 | 37905 ft | 490 kts | 244° |
| 2026-04-26 04:48 | 12.51483 | 94.67971 | 37909 ft | 490 kts | 244° |
| 2026-04-26 04:49 | 12.48619 | 94.61634 | 37908 ft | 490 kts | 245° |
| 2026-04-26 04:49 | 12.45774 | 94.55345 | 37910 ft | 490 kts | 245° |
| 2026-04-26 04:50 | 12.42908 | 94.49016 | 37904 ft | 490 kts | 245° |
| 2026-04-26 04:50 | 12.40054 | 94.42717 | 37906 ft | 490 kts | 245° |
| 2026-04-26 04:51 | 12.37193 | 94.36368 | 37910 ft | 490 kts | 245° |
| 2026-04-26 04:51 | 12.34364 | 94.30060 | 37909 ft | 490 kts | 245° |
| 2026-04-26 04:52 | 12.31510 | 94.23704 | 37909 ft | 490 kts | 245° |
| 2026-04-26 04:52 | 12.28671 | 94.17387 | 37908 ft | 490 kts | 245° |
| 2026-04-26 04:53 | 12.25823 | 94.11058 | 37906 ft | 491 kts | 245° |
| 2026-04-26 04:53 | 12.22957 | 94.04696 | 37906 ft | 491 kts | 245° |
| 2026-04-26 04:54 | 12.20128 | 93.98368 | 37908 ft | 491 kts | 245° |
| 2026-04-26 04:54 | 12.17317 | 93.92023 | 37910 ft | 491 kts | 245° |
| 2026-04-26 04:55 | 12.14510 | 93.85686 | 37906 ft | 491 kts | 245° |
| 2026-04-26 04:55 | 12.11680 | 93.79311 | 37901 ft | 491 kts | 245° |
| 2026-04-26 04:56 | 12.08866 | 93.72979 | 37906 ft | 491 kts | 245° |
| 2026-04-26 04:56 | 12.06038 | 93.66623 | 37908 ft | 491 kts | 245° |
| 2026-04-26 04:57 | 12.03205 | 93.60261 | 37906 ft | 491 kts | 245° |
| 2026-04-26 04:57 | 12.00390 | 93.53942 | 37904 ft | 490 kts | 245° |
| 2026-04-26 04:58 | 11.97570 | 93.47618 | 37905 ft | 490 kts | 245° |
| 2026-04-26 04:58 | 11.94749 | 93.41293 | 37901 ft | 490 kts | 245° |
| 2026-04-26 04:59 | 11.91915 | 93.34945 | 37908 ft | 490 kts | 245° |
| 2026-04-26 04:59 | 11.89081 | 93.28603 | 37903 ft | 490 kts | 245° |
| 2026-04-26 05:00 | 11.86255 | 93.22283 | 37906 ft | 490 kts | 245° |
| 2026-04-26 05:00 | 11.83432 | 93.15973 | 37907 ft | 490 kts | 245° |
| 2026-04-26 05:01 | 11.80592 | 93.09630 | 37899 ft | 490 kts | 245° |
| 2026-04-26 05:01 | 11.77770 | 93.03331 | 37904 ft | 490 kts | 244° |
| 2026-04-26 05:02 | 11.74925 | 92.96984 | 37902 ft | 490 kts | 244° |
| 2026-04-26 05:02 | 11.72094 | 92.90676 | 37901 ft | 490 kts | 244° |
| 2026-04-26 05:03 | 11.69246 | 92.84333 | 37910 ft | 490 kts | 244° |
| 2026-04-26 05:03 | 11.66406 | 92.78011 | 37906 ft | 490 kts | 244° |
| 2026-04-26 05:04 | 11.63976 | 92.71554 | 37914 ft | 491 kts | 251° |
| 2026-04-26 05:04 | 11.61876 | 92.64903 | 37909 ft | 491 kts | 252° |
| 2026-04-26 05:05 | 11.59850 | 92.58265 | 37913 ft | 491 kts | 252° |
| 2026-04-26 05:05 | 11.57829 | 92.51648 | 37911 ft | 491 kts | 252° |
| 2026-04-26 05:06 | 11.55793 | 92.45019 | 37908 ft | 491 kts | 252° |
| 2026-04-26 05:06 | 11.53743 | 92.38369 | 37910 ft | 491 kts | 251° |
| 2026-04-26 05:07 | 11.51691 | 92.31723 | 37907 ft | 491 kts | 251° |
| 2026-04-26 05:07 | 11.49645 | 92.25100 | 37903 ft | 490 kts | 251° |
| 2026-04-26 05:08 | 11.47600 | 92.18487 | 37903 ft | 490 kts | 251° |
| 2026-04-26 05:08 | 11.45556 | 92.11879 | 37901 ft | 490 kts | 251° |
| 2026-04-26 05:09 | 11.43503 | 92.05252 | 37898 ft | 490 kts | 251° |
| 2026-04-26 05:09 | 11.41456 | 91.98647 | 37900 ft | 490 kts | 251° |
| 2026-04-26 05:10 | 11.39398 | 91.92014 | 37896 ft | 489 kts | 251° |
| 2026-04-26 05:10 | 11.37357 | 91.85439 | 37898 ft | 489 kts | 251° |
| 2026-04-26 05:11 | 11.35290 | 91.78826 | 37901 ft | 489 kts | 251° |
| 2026-04-26 05:11 | 11.33114 | 91.72283 | 37901 ft | 489 kts | 250° |
| 2026-04-26 05:12 | 11.30873 | 91.65707 | 37899 ft | 489 kts | 250° |
| 2026-04-26 05:12 | 11.28650 | 91.59170 | 37897 ft | 489 kts | 250° |
| 2026-04-26 05:13 | 11.26447 | 91.52661 | 37895 ft | 488 kts | 250° |
| 2026-04-26 05:13 | 11.24226 | 91.46094 | 37896 ft | 488 kts | 250° |
| 2026-04-26 05:14 | 11.22022 | 91.39576 | 37896 ft | 488 kts | 250° |
| 2026-04-26 05:14 | 11.19803 | 91.33024 | 37895 ft | 488 kts | 250° |
| 2026-04-26 05:15 | 11.17597 | 91.26517 | 37895 ft | 488 kts | 250° |
| 2026-04-26 05:15 | 11.15372 | 91.19959 | 37892 ft | 488 kts | 250° |
| 2026-04-26 05:16 | 11.13163 | 91.13450 | 37891 ft | 488 kts | 250° |
| 2026-04-26 05:16 | 11.10938 | 91.06902 | 37895 ft | 488 kts | 250° |
| 2026-04-26 05:17 | 11.08725 | 91.00394 | 37898 ft | 488 kts | 250° |
| 2026-04-26 05:17 | 11.06493 | 90.93835 | 37899 ft | 488 kts | 250° |
| 2026-04-26 05:18 | 11.04654 | 90.88435 | 37897 ft | 488 kts | 250° |
| 2026-04-26 05:18 | 11.02429 | 90.81907 | 37898 ft | 488 kts | 250° |
| 2026-04-26 05:19 | 11.00201 | 90.75374 | 37897 ft | 488 kts | 250° |
| 2026-04-26 05:19 | 10.97604 | 90.67765 | 37897 ft | 488 kts | 250° |
| 2026-04-26 05:20 | 10.95744 | 90.62321 | 37894 ft | 488 kts | 250° |
| 2026-04-26 05:20 | 10.93515 | 90.55800 | 37900 ft | 488 kts | 250° |
| 2026-04-26 05:21 | 10.91284 | 90.49280 | 37895 ft | 489 kts | 249° |
| 2026-04-26 05:21 | 10.89043 | 90.42732 | 37897 ft | 489 kts | 249° |
| 2026-04-26 05:22 | 10.86812 | 90.36222 | 37895 ft | 489 kts | 249° |
| 2026-04-26 05:22 | 10.84578 | 90.29706 | 37894 ft | 489 kts | 249° |
| 2026-04-26 05:23 | 10.82331 | 90.23158 | 37893 ft | 489 kts | 249° |
| 2026-04-26 05:23 | 10.80090 | 90.16633 | 37895 ft | 489 kts | 249° |
| 2026-04-26 05:24 | 10.77850 | 90.10115 | 37894 ft | 489 kts | 249° |
| 2026-04-26 05:24 | 10.75613 | 90.03613 | 37896 ft | 489 kts | 249° |
| 2026-04-26 05:25 | 10.73338 | 89.97083 | 37892 ft | 488 kts | 249° |
| 2026-04-26 05:25 | 10.70996 | 89.90631 | 37892 ft | 488 kts | 248° |
| 2026-04-26 05:26 | 10.68631 | 89.84173 | 37889 ft | 488 kts | 248° |
| 2026-04-26 05:26 | 10.66259 | 89.77682 | 37892 ft | 488 kts | 248° |
| 2026-04-26 05:27 | 10.63906 | 89.71226 | 37889 ft | 488 kts | 248° |
| 2026-04-26 05:27 | 10.61551 | 89.64764 | 37892 ft | 488 kts | 248° |
| 2026-04-26 05:28 | 10.59181 | 89.58267 | 37894 ft | 488 kts | 248° |
| 2026-04-26 05:28 | 10.56823 | 89.51806 | 37894 ft | 488 kts | 248° |
| 2026-04-26 05:29 | 10.54461 | 89.45338 | 37894 ft | 490 kts | 248° |
| 2026-04-26 05:29 | 10.52080 | 89.38826 | 37891 ft | 490 kts | 248° |
| 2026-04-26 05:30 | 10.49716 | 89.32364 | 37889 ft | 490 kts | 248° |
| 2026-04-26 05:30 | 10.47335 | 89.25858 | 37894 ft | 490 kts | 248° |
| 2026-04-26 05:31 | 10.44963 | 89.19385 | 37887 ft | 490 kts | 248° |
| 2026-04-26 05:31 | 10.42572 | 89.12863 | 37891 ft | 490 kts | 248° |
| 2026-04-26 05:32 | 10.40203 | 89.06404 | 37889 ft | 490 kts | 248° |
| 2026-04-26 05:32 | 10.37816 | 88.99902 | 37889 ft | 490 kts | 248° |
| 2026-04-26 05:33 | 10.35442 | 88.93441 | 37890 ft | 490 kts | 248° |
| 2026-04-26 05:33 | 10.33064 | 88.86971 | 37889 ft | 490 kts | 248° |
| 2026-04-26 05:34 | 10.30682 | 88.80496 | 37881 ft | 490 kts | 248° |
| 2026-04-26 05:34 | 10.28291 | 88.74000 | 37890 ft | 490 kts | 248° |
| 2026-04-26 05:35 | 10.25914 | 88.67548 | 37886 ft | 489 kts | 248° |
| 2026-04-26 05:35 | 10.23520 | 88.61052 | 37887 ft | 489 kts | 248° |
| 2026-04-26 05:36 | 10.21144 | 88.54614 | 37889 ft | 489 kts | 248° |
| 2026-04-26 05:36 | 10.18747 | 88.48116 | 37888 ft | 490 kts | 248° |
| 2026-04-26 05:37 | 10.16357 | 88.41642 | 37887 ft | 490 kts | 248° |
| 2026-04-26 05:37 | 10.13977 | 88.35194 | 37891 ft | 489 kts | 248° |
| 2026-04-26 05:38 | 10.11580 | 88.28709 | 37886 ft | 489 kts | 248° |
| 2026-04-26 05:38 | 10.09198 | 88.22267 | 37884 ft | 489 kts | 248° |
| 2026-04-26 05:39 | 10.06807 | 88.15808 | 37889 ft | 489 kts | 248° |
| 2026-04-26 05:39 | 10.04422 | 88.09367 | 37884 ft | 489 kts | 248° |
| 2026-04-26 05:40 | 10.02022 | 88.02889 | 37886 ft | 488 kts | 248° |
| 2026-04-26 05:40 | 9.99642 | 87.96471 | 37888 ft | 488 kts | 248° |
| 2026-04-26 05:41 | 9.97244 | 87.90008 | 37887 ft | 488 kts | 248° |
| 2026-04-26 05:41 | 9.94858 | 87.83583 | 37885 ft | 488 kts | 248° |
| 2026-04-26 05:42 | 9.92458 | 87.77126 | 37889 ft | 488 kts | 248° |
| 2026-04-26 05:42 | 9.90068 | 87.70696 | 37889 ft | 488 kts | 248° |
| 2026-04-26 05:43 | 9.87676 | 87.64266 | 37886 ft | 489 kts | 248° |
| 2026-04-26 05:43 | 9.85270 | 87.57804 | 37888 ft | 489 kts | 248° |
| 2026-04-26 05:44 | 9.82871 | 87.51365 | 37889 ft | 489 kts | 248° |
| 2026-04-26 05:44 | 9.80474 | 87.44936 | 37885 ft | 490 kts | 249° |
| 2026-04-26 05:45 | 9.78057 | 87.38457 | 37884 ft | 491 kts | 248° |
| 2026-04-26 05:45 | 9.75692 | 87.31987 | 37884 ft | 491 kts | 249° |
| 2026-04-26 05:46 | 9.73430 | 87.25458 | 37884 ft | 492 kts | 250° |
| 2026-04-26 05:46 | 9.71187 | 87.18928 | 37885 ft | 492 kts | 250° |
| 2026-04-26 05:47 | 9.68920 | 87.12365 | 37881 ft | 492 kts | 250° |
| 2026-04-26 05:47 | 9.66656 | 87.05842 | 37882 ft | 492 kts | 250° |
| 2026-04-26 05:48 | 9.64376 | 86.99285 | 37889 ft | 492 kts | 250° |
| 2026-04-26 05:48 | 9.62106 | 86.92761 | 37882 ft | 492 kts | 250° |
| 2026-04-26 05:49 | 9.58694 | 86.82962 | 37881 ft | 491 kts | 250° |
| 2026-04-26 05:50 | 9.56427 | 86.76456 | 37884 ft | 491 kts | 249° |
| 2026-04-26 05:50 | 9.54158 | 86.69949 | 37884 ft | 491 kts | 249° |
| 2026-04-26 05:51 | 9.51870 | 86.63389 | 37886 ft | 491 kts | 249° |
| 2026-04-26 05:51 | 9.49593 | 86.56869 | 37882 ft | 491 kts | 249° |
| 2026-04-26 05:52 | 9.47323 | 86.50371 | 37885 ft | 490 kts | 249° |
| 2026-04-26 05:52 | 9.45059 | 86.43894 | 37884 ft | 489 kts | 250° |
| 2026-04-26 05:53 | 9.42779 | 86.37377 | 37884 ft | 491 kts | 250° |
| 2026-04-26 05:53 | 9.40503 | 86.30878 | 37881 ft | 492 kts | 249° |
| 2026-04-26 05:54 | 9.38210 | 86.24329 | 37878 ft | 492 kts | 250° |
| 2026-04-26 05:54 | 9.35929 | 86.17823 | 37886 ft | 492 kts | 250° |
| 2026-04-26 05:55 | 9.33650 | 86.11325 | 37882 ft | 490 kts | 250° |
| 2026-04-26 05:55 | 9.31363 | 86.04809 | 37882 ft | 489 kts | 250° |
| 2026-04-26 05:56 | 9.29090 | 85.98338 | 37884 ft | 489 kts | 250° |
| 2026-04-26 05:56 | 9.26816 | 85.91867 | 37880 ft | 489 kts | 250° |
| 2026-04-26 05:57 | 9.24547 | 85.85382 | 37879 ft | 489 kts | 250° |
| 2026-04-26 05:57 | 9.22332 | 85.78887 | 37882 ft | 489 kts | 250° |
| 2026-04-26 05:58 | 9.20116 | 85.72341 | 37881 ft | 489 kts | 250° |
| 2026-04-26 05:58 | 9.17909 | 85.65838 | 37878 ft | 489 kts | 250° |
| 2026-04-26 05:59 | 9.15694 | 85.59328 | 37882 ft | 489 kts | 250° |
| 2026-04-26 05:59 | 9.13482 | 85.52838 | 37884 ft | 489 kts | 250° |
| 2026-04-26 06:00 | 9.11273 | 85.46360 | 37882 ft | 489 kts | 250° |
| 2026-04-26 06:00 | 9.09047 | 85.39839 | 37886 ft | 488 kts | 251° |
| 2026-04-26 06:01 | 9.06836 | 85.33364 | 37880 ft | 488 kts | 251° |
| 2026-04-26 06:01 | 9.04624 | 85.26887 | 37883 ft | 489 kts | 251° |
| 2026-04-26 06:02 | 9.02388 | 85.20346 | 37882 ft | 490 kts | 250° |
| 2026-04-26 06:02 | 9.00167 | 85.13854 | 37878 ft | 490 kts | 251° |
| 2026-04-26 06:03 | 8.97945 | 85.07362 | 37882 ft | 490 kts | 251° |
| 2026-04-26 06:03 | 8.95722 | 85.00873 | 37878 ft | 490 kts | 251° |
| 2026-04-26 06:04 | 8.93485 | 84.94344 | 37882 ft | 490 kts | 251° |
| 2026-04-26 06:04 | 8.91260 | 84.87856 | 37881 ft | 490 kts | 251° |
| 2026-04-26 06:05 | 8.89017 | 84.81320 | 37881 ft | 490 kts | 251° |
| 2026-04-26 06:05 | 8.86807 | 84.74828 | 37879 ft | 490 kts | 251° |
| 2026-04-26 06:06 | 8.84610 | 84.68322 | 37884 ft | 490 kts | 251° |
| 2026-04-26 06:06 | 8.82410 | 84.61805 | 37884 ft | 490 kts | 251° |
| 2026-04-26 06:07 | 8.80195 | 84.55257 | 37879 ft | 489 kts | 251° |
| 2026-04-26 06:07 | 8.77996 | 84.48762 | 37879 ft | 490 kts | 251° |
| 2026-04-26 06:08 | 8.75795 | 84.42269 | 37876 ft | 490 kts | 251° |
| 2026-04-26 06:08 | 8.73580 | 84.35738 | 37880 ft | 489 kts | 251° |
| 2026-04-26 06:09 | 8.71383 | 84.29262 | 37879 ft | 489 kts | 251° |
| 2026-04-26 06:09 | 8.69177 | 84.22765 | 37877 ft | 488 kts | 251° |
| 2026-04-26 06:10 | 8.66974 | 84.16280 | 37877 ft | 487 kts | 251° |
| 2026-04-26 06:10 | 8.64758 | 84.09763 | 37879 ft | 490 kts | 251° |
| 2026-04-26 06:11 | 8.62548 | 84.03267 | 37873 ft | 490 kts | 251° |
| 2026-04-26 06:11 | 8.60335 | 83.96764 | 37878 ft | 490 kts | 251° |
| 2026-04-26 06:12 | 8.58122 | 83.90266 | 37878 ft | 490 kts | 251° |
| 2026-04-26 06:12 | 8.55906 | 83.83763 | 37877 ft | 490 kts | 251° |
| 2026-04-26 06:13 | 8.53690 | 83.77266 | 37877 ft | 490 kts | 251° |
| 2026-04-26 06:13 | 8.51833 | 83.71824 | 37878 ft | 490 kts | 251° |
| 2026-04-26 06:14 | 8.49620 | 83.65340 | 37875 ft | 490 kts | 251° |
| 2026-04-26 06:14 | 8.47388 | 83.58806 | 37877 ft | 490 kts | 251° |
| 2026-04-26 06:15 | 8.45169 | 83.52313 | 37874 ft | 490 kts | 250° |
| 2026-04-26 06:15 | 8.42950 | 83.45825 | 37870 ft | 490 kts | 250° |
| 2026-04-26 06:16 | 8.40724 | 83.39319 | 37870 ft | 490 kts | 251° |
| 2026-04-26 06:16 | 8.38488 | 83.32789 | 37871 ft | 490 kts | 250° |
| 2026-04-26 06:17 | 8.36266 | 83.26305 | 37878 ft | 490 kts | 250° |
| 2026-04-26 06:17 | 8.34038 | 83.19805 | 37877 ft | 490 kts | 250° |
| 2026-04-26 06:18 | 8.31796 | 83.13268 | 37878 ft | 490 kts | 250° |
| 2026-04-26 06:18 | 8.29562 | 83.06758 | 37874 ft | 491 kts | 250° |
| 2026-04-26 06:19 | 8.27333 | 83.00268 | 37870 ft | 492 kts | 250° |
| 2026-04-26 06:19 | 8.25079 | 82.93710 | 37858 ft | 493 kts | 250° |
| 2026-04-26 06:20 | 8.22831 | 82.87173 | 37871 ft | 494 kts | 250° |
| 2026-04-26 06:20 | 8.20572 | 82.80652 | 37873 ft | 494 kts | 250° |
| 2026-04-26 06:21 | 8.18297 | 82.74096 | 37862 ft | 493 kts | 250° |
| 2026-04-26 06:21 | 8.16045 | 82.67606 | 37873 ft | 492 kts | 250° |
| 2026-04-26 06:22 | 8.13777 | 82.61075 | 37881 ft | 492 kts | 250° |
| 2026-04-26 06:22 | 8.11526 | 82.54597 | 37867 ft | 492 kts | 250° |
| 2026-04-26 06:23 | 8.09260 | 82.48079 | 37862 ft | 492 kts | 250° |
| 2026-04-26 06:23 | 8.06999 | 82.41580 | 37879 ft | 492 kts | 250° |
| 2026-04-26 06:24 | 8.04726 | 82.35049 | 37873 ft | 491 kts | 250° |
| 2026-04-26 06:24 | 8.02477 | 82.28589 | 37875 ft | 490 kts | 250° |
| 2026-04-26 06:25 | 8.00204 | 82.22068 | 37871 ft | 490 kts | 250° |
| 2026-04-26 06:25 | 7.97953 | 82.15609 | 37873 ft | 490 kts | 250° |
| 2026-04-26 06:26 | 7.95693 | 82.09132 | 37876 ft | 490 kts | 250° |
| 2026-04-26 06:26 | 7.93421 | 82.02622 | 37872 ft | 490 kts | 250° |
| 2026-04-26 06:27 | 7.91161 | 81.96149 | 37857 ft | 490 kts | 250° |
| 2026-04-26 06:27 | 7.88891 | 81.89654 | 37858 ft | 490 kts | 250° |
| 2026-04-26 06:28 | 7.86632 | 81.83191 | 37858 ft | 490 kts | 250° |
| 2026-04-26 06:28 | 7.84367 | 81.76718 | 37871 ft | 490 kts | 250° |
| 2026-04-26 06:29 | 7.82096 | 81.70228 | 37868 ft | 490 kts | 250° |
| 2026-04-26 06:29 | 7.79830 | 81.63757 | 37869 ft | 490 kts | 250° |
| 2026-04-26 06:30 | 7.77569 | 81.57304 | 37867 ft | 488 kts | 249° |
| 2026-04-26 06:30 | 7.75299 | 81.50829 | 37862 ft | 487 kts | 249° |
| 2026-04-26 06:31 | 7.73903 | 81.44200 | 37858 ft | 489 kts | 272° |
| 2026-04-26 06:31 | 7.74428 | 81.37370 | 37848 ft | 490 kts | 268° |
| 2026-04-26 06:31 | 7.73962 | 81.34013 | 37861 ft | 486 kts | 252° |
| 2026-04-26 06:32 | 7.72615 | 81.30900 | 37820 ft | 481 kts | 237° |
| 2026-04-26 06:32 | 7.69483 | 81.25077 | 37700 ft | 473 kts | 251° |
| 2026-04-26 06:33 | 7.67809 | 81.18661 | 37422 ft | 475 kts | 262° |
| 2026-04-26 06:33 | 7.67639 | 81.15330 | 36581 ft | 475 kts | 272° |
| 2026-04-26 06:33 | 7.68197 | 81.12085 | 35285 ft | 479 kts | 287° |
| 2026-04-26 06:33 | 7.69587 | 81.09014 | 33869 ft | 485 kts | 302° |
| 2026-04-26 06:34 | 7.71718 | 81.06350 | 32244 ft | 491 kts | 312° |
| 2026-04-26 06:34 | 7.74118 | 81.03867 | 30595 ft | 496 kts | 316° |
| 2026-04-26 06:34 | 7.76818 | 81.01717 | 28776 ft | 500 kts | 326° |
| 2026-04-26 06:34 | 7.79585 | 80.99562 | 27062 ft | 501 kts | 315° |
| 2026-04-26 06:35 | 7.81670 | 80.96826 | 25789 ft | 492 kts | 300° |
| 2026-04-26 06:35 | 7.83082 | 80.93717 | 24538 ft | 483 kts | 289° |
| 2026-04-26 06:35 | 7.83925 | 80.90463 | 23399 ft | 473 kts | 281° |
| 2026-04-26 06:35 | 7.84287 | 80.87183 | 22026 ft | 464 kts | 272° |
| 2026-04-26 06:36 | 7.84211 | 80.83994 | 20626 ft | 457 kts | 264° |
| 2026-04-26 06:36 | 7.83695 | 80.80844 | 19297 ft | 450 kts | 256° |
| 2026-04-26 06:36 | 7.82755 | 80.77891 | 18314 ft | 437 kts | 247° |
| 2026-04-26 06:36 | 7.81444 | 80.75179 | 17624 ft | 423 kts | 239° |
| 2026-04-26 06:37 | 7.79691 | 80.72838 | 17074 ft | 415 kts | 223° |
| 2026-04-26 06:37 | 7.77372 | 80.71192 | 16486 ft | 409 kts | 203° |
| 2026-04-26 06:37 | 7.74657 | 80.70374 | 15926 ft | 403 kts | 188° |
| 2026-04-26 06:37 | 7.71902 | 80.69955 | 15383 ft | 400 kts | 185° |
| 2026-04-26 06:38 | 7.69153 | 80.69599 | 14823 ft | 397 kts | 185° |
| 2026-04-26 06:38 | 7.66414 | 80.69224 | 14270 ft | 394 kts | 186° |
| 2026-04-26 06:38 | 7.63725 | 80.68828 | 13716 ft | 393 kts | 186° |
| 2026-04-26 06:38 | 7.61028 | 80.68415 | 13116 ft | 390 kts | 187° |
| 2026-04-26 06:39 | 7.58349 | 80.67976 | 12539 ft | 385 kts | 189° |
| 2026-04-26 06:39 | 7.55839 | 80.67138 | 11993 ft | 384 kts | 205° |
| 2026-04-26 06:39 | 7.53711 | 80.65535 | 11493 ft | 382 kts | 227° |
| 2026-04-26 06:39 | 7.52335 | 80.63313 | 11395 ft | 365 kts | 245° |
| 2026-04-26 06:40 | 7.51429 | 80.61013 | 11308 ft | 349 kts | 249° |
| 2026-04-26 06:40 | 7.50629 | 80.58766 | 11191 ft | 334 kts | 250° |
| 2026-04-26 06:40 | 7.49863 | 80.56588 | 11073 ft | 322 kts | 250° |
| 2026-04-26 06:40 | 7.49126 | 80.54493 | 10938 ft | 313 kts | 250° |
| 2026-04-26 06:41 | 7.48411 | 80.52472 | 10797 ft | 305 kts | 250° |
| 2026-04-26 06:41 | 7.47704 | 80.50480 | 10669 ft | 297 kts | 250° |
| 2026-04-26 06:41 | 7.47007 | 80.48518 | 10362 ft | 297 kts | 249° |
| 2026-04-26 06:41 | 7.46308 | 80.46552 | 9995 ft | 298 kts | 250° |
| 2026-04-26 06:42 | 7.45610 | 80.44593 | 9634 ft | 300 kts | 250° |
| 2026-04-26 06:42 | 7.44903 | 80.42608 | 9258 ft | 300 kts | 250° |
| 2026-04-26 06:42 | 7.44206 | 80.40654 | 8914 ft | 299 kts | 250° |
| 2026-04-26 06:42 | 7.43505 | 80.38686 | 8566 ft | 297 kts | 250° |
| 2026-04-26 06:43 | 7.42808 | 80.36731 | 8222 ft | 296 kts | 250° |
| 2026-04-26 06:43 | 7.42112 | 80.34778 | 7874 ft | 295 kts | 250° |
| 2026-04-26 06:43 | 7.41499 | 80.32823 | 7514 ft | 295 kts | 257° |
| 2026-04-26 06:43 | 7.41138 | 80.30795 | 7165 ft | 293 kts | 261° |
| 2026-04-26 06:44 | 7.40850 | 80.28765 | 6826 ft | 292 kts | 262° |
| 2026-04-26 06:44 | 7.40575 | 80.26758 | 6487 ft | 291 kts | 262° |
| 2026-04-26 06:44 | 7.40296 | 80.24732 | 6115 ft | 289 kts | 262° |
| 2026-04-26 06:44 | 7.40021 | 80.22745 | 5777 ft | 287 kts | 262° |
| 2026-04-26 06:45 | 7.39743 | 80.20760 | 5431 ft | 285 kts | 262° |
| 2026-04-26 06:45 | 7.39467 | 80.18799 | 5089 ft | 284 kts | 262° |
| 2026-04-26 06:45 | 7.39188 | 80.16820 | 4746 ft | 283 kts | 262° |
| 2026-04-26 06:45 | 7.38911 | 80.14861 | 4401 ft | 281 kts | 262° |
| 2026-04-26 06:46 | 7.38640 | 80.12943 | 4064 ft | 278 kts | 262° |
| 2026-04-26 06:46 | 7.38367 | 80.11010 | 3728 ft | 276 kts | 262° |
| 2026-04-26 06:46 | 7.38098 | 80.09109 | 3490 ft | 269 kts | 262° |
| 2026-04-26 06:46 | 7.37843 | 80.07305 | 3410 ft | 257 kts | 262° |
| 2026-04-26 06:47 | 7.37594 | 80.05547 | 3304 ft | 247 kts | 262° |
| 2026-04-26 06:47 | 7.37224 | 80.03925 | 3158 ft | 236 kts | 244° |
| 2026-04-26 06:47 | 7.36255 | 80.02644 | 3065 ft | 224 kts | 222° |
| 2026-04-26 06:47 | 7.35077 | 80.01705 | 2958 ft | 206 kts | 216° |
| 2026-04-26 06:48 | 7.33983 | 80.00877 | 2788 ft | 189 kts | 217° |
| 2026-04-26 06:48 | 7.32971 | 80.00090 | 2597 ft | 178 kts | 218° |
| 2026-04-26 06:48 | 7.32043 | 79.99363 | 2435 ft | 164 kts | 219° |
| 2026-04-26 06:48 | 7.31194 | 79.98694 | 2394 ft | 146 kts | 218° |
| 2026-04-26 06:49 | 7.30404 | 79.98077 | 2379 ft | 146 kts | 218° |
| 2026-04-26 06:49 | 7.29648 | 79.97400 | 2219 ft | 146 kts | 222° |
| 2026-04-26 06:49 | 7.28904 | 79.96715 | 1979 ft | 143 kts | 221° |
| 2026-04-26 06:49 | 7.28150 | 79.96067 | 1755 ft | 142 kts | 223° |
| 2026-04-26 06:50 | 7.27407 | 79.95435 | 1556 ft | 139 kts | 216° |
| 2026-04-26 06:50 | 7.26610 | 79.94859 | 1402 ft | 141 kts | 218° |
| 2026-04-26 06:50 | 7.25815 | 79.94273 | 1315 ft | 142 kts | 217° |
| 2026-04-26 06:50 | 7.25034 | 79.93670 | 1260 ft | 141 kts | 217° |
| 2026-04-26 06:51 | 7.24260 | 79.93086 | 1220 ft | 141 kts | 218° |
| 2026-04-26 06:51 | 7.22664 | 79.91835 | 802 ft | 149 kts | 219° |
| 2026-04-26 06:51 | 7.21845 | 79.91231 | 639 ft | 149 kts | 220° |
| 2026-04-26 06:52 | 7.20991 | 79.90580 | 466 ft | 157 kts | 218° |
| 2026-04-26 06:52 | 7.20116 | 79.89899 | 313 ft | 157 kts | 219° |
| 2026-04-26 06:52 | 7.19280 | 79.89265 | 111 ft | 149 kts | 218° |
| 2026-04-26 06:52 | 7.18495 | 79.88675 | 40 ft | 129 kts | 218° |
| 2026-04-26 06:53 | 7.17977 | 79.88280 | 39 ft | 55 kts | 216° |
| 2026-04-26 06:53 | 7.17690 | 79.88057 | 39 ft | 50 kts | 213° |
| 2026-04-26 06:53 | 7.17532 | 79.87948 | 39 ft | 11 kts | 195° |
| 2026-04-26 06:53 | 7.17473 | 79.87980 | 38 ft | 11 kts | 136° |
| 2026-04-26 06:54 | 7.17423 | 79.88040 | 37 ft | 12 kts | 129° |
| 2026-04-26 06:54 | 7.17412 | 79.88080 | 37 ft | 2 kts | 53° |
| 2026-04-26 06:54 | 7.17456 | 79.88115 | 37 ft | 13 kts | 39° |
| 2026-04-26 06:54 | 7.17543 | 79.88185 | 37 ft | 16 kts | 36° |
| 2026-04-26 06:55 | 7.17618 | 79.88259 | 38 ft | 12 kts | 91° |
| 2026-04-26 06:55 | 7.17577 | 79.88329 | 37 ft | 12 kts | 128° |
| 2026-04-26 06:55 | 7.17519 | 79.88401 | 37 ft | 13 kts | 116° |
| 2026-04-26 06:55 | 7.17531 | 79.88447 | 37 ft | 6 kts | 33° |
| 2026-04-26 06:56 | 7.17567 | 79.88471 | 37 ft | 4 kts | 36° |
| 2026-04-26 06:56 | 7.17569 | 79.88472 | 37 ft | 0 kts | 36° |